Time;durP1;ratioP1;P1;durP2;ratioP2;P2;SDS_P1;SDS_P2;PMS_P1;PMS_P2;Temp;Humidity;BMP_temperature;BMP_pressure;BME280_temperature;BME280_humidity;BME280_pressure;Samples;Min_cycle;Max_cycle;Signal;HPM_P1;HPM_P2
2023/03/08 00:02:06;;;;;;;5.95;3.20;;;;;;;5.55;100.00;98600.91;6213990;28;20046;-72
2023/03/08 00:05:07;;;;;;;4.65;2.20;;;;;;;5.58;100.00;98601.53;6223353;28;20466;-72
2023/03/08 00:08:08;;;;;;;4.45;2.65;;;;;;;5.64;100.00;98610.66;6221423;28;20045;-71
2023/03/08 00:11:11;;;;;;;3.60;2.30;;;;;;;5.68;100.00;98600.94;6248713;28;20494;-71
2023/03/08 00:14:12;;;;;;;4.90;2.55;;;;;;;5.65;100.00;98591.63;6208101;28;20037;-71
2023/03/08 00:17:13;;;;;;;3.10;2.40;;;;;;;5.64;100.00;98580.44;6244076;28;20063;-71
2023/03/08 00:20:14;;;;;;;5.22;2.55;;;;;;;5.68;100.00;98590.59;6243432;28;20046;-75
2023/03/08 00:23:14;;;;;;;3.00;1.85;;;;;;;5.60;100.00;98585.88;6247346;28;20056;-75
2023/03/08 00:26:15;;;;;;;3.13;1.92;;;;;;;5.67;100.00;98584.59;6245599;28;20458;-75
2023/03/08 00:29:16;;;;;;;3.83;2.60;;;;;;;5.62;100.00;98584.03;6227868;28;20041;-75
2023/03/08 00:32:17;;;;;;;2.83;2.33;;;;;;;5.59;100.00;98584.25;6227922;28;20042;-75
2023/03/08 00:35:19;;;;;;;3.55;2.13;;;;;;;5.54;100.00;98570.75;6226846;28;20051;-75
2023/03/08 00:38:20;;;;;;;3.67;2.55;;;;;;;5.39;100.00;98577.75;6241932;28;20044;-75
2023/03/08 00:41:24;;;;;;;2.53;1.88;;;;;;;5.47;100.00;98569.50;6249883;28;20065;-75
2023/03/08 00:44:25;;;;;;;7.10;3.25;;;;;;;5.43;100.00;98572.28;6234383;28;20046;-75
2023/03/08 00:47:26;;;;;;;2.47;1.48;;;;;;;5.35;100.00;98563.34;6204951;28;20151;-75
2023/03/08 00:50:29;;;;;;;3.90;2.10;;;;;;;5.41;100.00;98568.13;6235103;28;20037;-75
2023/03/08 00:53:30;;;;;;;5.03;2.65;;;;;;;5.37;100.00;98562.31;6245191;28;20042;-75
2023/03/08 00:56:31;;;;;;;2.90;2.13;;;;;;;5.35;100.00;98555.59;6261730;28;20045;-75
2023/03/08 00:59:31;;;;;;;4.25;2.60;;;;;;;5.35;100.00;98555.59;6240029;28;20041;-74
2023/03/08 01:02:32;;;;;;;3.22;2.10;;;;;;;5.37;100.00;98556.31;6241342;28;20056;-74
2023/03/08 01:05:37;;;;;;;3.38;2.30;;;;;;;5.27;100.00;98552.66;6242916;28;20048;-74
2023/03/08 01:08:44;;;;;;;4.05;2.30;;;;;;;5.28;100.00;98552.56;6233285;28;20524;-75
2023/03/08 01:11:44;;;;;;;2.38;1.48;;;;;;;5.20;100.00;98557.38;6231612;28;20030;-74
2023/03/08 01:14:45;;;;;;;4.00;2.08;;;;;;;5.15;100.00;98552.50;6222910;28;20063;-75
2023/03/08 01:17:46;;;;;;;1.48;1.38;;;;;;;5.17;100.00;98544.66;6205460;28;20397;-74
2023/03/08 01:21:01;;;;;;;3.88;2.70;;;;;;;5.20;100.00;98544.47;6204086;28;20054;-74
2023/03/08 01:24:02;;;;;;;2.33;1.90;;;;;;;5.23;100.00;98546.88;6229461;28;20038;-74
2023/03/08 01:27:02;;;;;;;2.42;1.95;;;;;;;5.21;100.00;98538.38;6242609;28;20049;-75
2023/03/08 01:30:04;;;;;;;3.45;2.20;;;;;;;5.28;100.00;98539.63;6231610;28;20042;-74
2023/03/08 01:33:05;;;;;;;3.38;2.33;;;;;;;5.39;100.00;98549.28;6226512;28;20049;-75
2023/03/08 01:36:08;;;;;;;3.10;1.70;;;;;;;5.40;100.00;98553.56;6239419;28;20040;-74
2023/03/08 01:39:11;;;;;;;2.97;2.35;;;;;;;5.43;100.00;98553.34;6245366;28;20450;-75
2023/03/08 01:42:12;;;;;;;4.00;2.22;;;;;;;5.43;100.00;98549.00;6227953;28;20042;-75
2023/03/08 01:45:50;;;;;;;7.05;3.03;;;;;;;5.50;100.00;98553.78;6244551;28;20034;-75
2023/03/08 01:49:14;;;;;;;4.25;2.15;;;;;;;5.45;100.00;98552.31;6235757;28;20054;-75
2023/03/08 01:52:20;;;;;;;3.88;2.47;;;;;;;5.43;100.00;98553.34;6227447;28;20490;-73
2023/03/08 01:55:21;;;;;;;4.10;2.40;;;;;;;5.41;100.00;98555.19;6232702;28;20501;-71
2023/03/08 01:58:22;;;;;;;4.25;2.53;;;;;;;5.40;100.00;98551.78;6244383;28;20042;-70
2023/03/08 02:01:23;;;;;;;3.60;2.17;;;;;;;5.39;100.00;98559.63;6227597;28;20072;-75
2023/03/08 02:04:25;;;;;;;5.30;2.30;;;;;;;5.44;100.00;98549.84;6247567;28;20501;-75
2023/03/08 02:07:26;;;;;;;4.93;2.58;;;;;;;5.45;100.00;98554.91;6227673;28;20038;-75
2023/03/08 02:10:27;;;;;;;6.03;2.30;;;;;;;5.41;100.00;98550.03;6227353;28;20136;-75
2023/03/08 02:13:28;;;;;;;2.58;2.05;;;;;;;5.40;100.00;98549.19;6235327;28;20489;-75
2023/03/08 02:16:29;;;;;;;5.93;3.15;;;;;;;5.40;100.00;98562.13;6227309;28;20455;-75
2023/03/08 02:19:42;;;;;;;6.10;2.42;;;;;;;5.42;100.00;98562.88;6228432;28;20046;-75
2023/03/08 02:22:44;;;;;;;2.58;2.00;;;;;;;5.42;100.00;98565.47;6203254;28;20046;-75
2023/03/08 02:25:52;;;;;;;4.22;2.40;;;;;;;5.40;100.00;98566.50;6232365;28;20482;-75
2023/03/08 02:28:53;;;;;;;6.03;1.95;;;;;;;5.42;100.00;98562.03;6220934;28;20469;-75
2023/03/08 02:31:54;;;;;;;8.57;3.08;;;;;;;5.35;100.00;98563.34;6272704;28;20128;-75
2023/03/08 02:34:55;;;;;;;6.20;2.80;;;;;;;5.30;100.00;98562.81;6259317;28;20111;-75
2023/03/08 02:37:56;;;;;;;5.40;2.58;;;;;;;5.35;100.00;98569.34;6232518;28;20045;-75
2023/03/08 02:40:57;;;;;;;3.20;2.20;;;;;;;5.33;100.00;98563.44;6226895;28;20065;-75
2023/03/08 02:43:58;;;;;;;6.75;2.45;;;;;;;5.33;100.00;98578.13;6224871;28;20042;-75
2023/03/08 02:46:59;;;;;;;3.65;2.33;;;;;;;5.34;100.00;98583.22;6227060;28;20061;-75
2023/03/08 02:49:59;;;;;;;4.30;2.75;;;;;;;5.25;100.00;98582.03;6244494;28;20117;-75
2023/03/08 02:53:01;;;;;;;7.10;3.97;;;;;;;5.28;100.00;98581.00;6241076;28;20046;-75
2023/03/08 02:56:01;;;;;;;7.63;3.38;;;;;;;5.31;100.00;98580.81;6240047;28;20045;-75
2023/03/08 02:59:04;;;;;;;6.28;2.95;;;;;;;5.33;100.00;98586.72;6220153;28;20378;-75
2023/03/08 03:02:05;;;;;;;7.65;3.88;;;;;;;5.32;100.00;98584.25;6240635;28;20056;-75
2023/03/08 03:05:09;;;;;;;4.53;2.95;;;;;;;5.27;100.00;98592.28;6237095;28;20037;-75
2023/03/08 03:08:11;;;;;;;4.93;2.97;;;;;;;5.28;100.00;98595.72;6240804;28;20125;-75
2023/03/08 03:11:18;;;;;;;4.22;3.22;;;;;;;5.24;100.00;98598.47;6226867;28;20073;-75
2023/03/08 03:14:19;;;;;;;5.40;3.38;;;;;;;5.25;100.00;98594.16;6219908;28;20485;-75
2023/03/08 03:17:20;;;;;;;10.07;3.58;;;;;;;5.30;100.00;98594.69;6219784;28;20038;-75
2023/03/08 03:20:20;;;;;;;4.82;3.10;;;;;;;5.22;100.00;98597.75;6234547;28;20072;-75
2023/03/08 03:23:21;;;;;;;5.40;3.53;;;;;;;5.17;100.00;98599.78;6272963;28;20041;-75
2023/03/08 03:26:23;;;;;;;6.70;3.22;;;;;;;5.17;100.00;98588.63;6206195;28;20053;-75
2023/03/08 03:29:26;;;;;;;3.42;2.85;;;;;;;5.18;100.00;98592.84;6243816;28;20077;-75
2023/03/08 03:32:27;;;;;;;9.10;5.00;;;;;;;5.07;100.00;98590.94;6236333;28;20041;-75
2023/03/08 03:35:30;;;;;;;6.82;3.58;;;;;;;5.01;100.00;98612.81;6252964;28;20117;-75
2023/03/08 03:38:31;;;;;;;4.30;3.13;;;;;;;5.03;100.00;98617.91;6216581;28;20037;-71
2023/03/08 03:41:34;;;;;;;13.40;8.02;;;;;;;4.86;100.00;98621.53;6225291;28;20144;-71
2023/03/08 03:44:35;;;;;;;21.35;11.90;;;;;;;4.82;100.00;98625.22;6224369;28;20120;-71
2023/03/08 03:47:36;;;;;;;18.08;10.88;;;;;;;4.80;100.00;98627.06;6231875;28;20042;-71
2023/03/08 03:50:36;;;;;;;5.80;4.47;;;;;;;4.80;100.00;98629.66;6211237;28;20042;-71
2023/03/08 03:53:37;;;;;;;9.13;4.72;;;;;;;4.71;100.00;98633.59;6249290;28;20113;-75
2023/03/08 03:56:38;;;;;;;7.88;4.05;;;;;;;4.80;100.00;98635.63;6229425;28;20041;-75
2023/03/08 03:59:39;;;;;;;7.70;2.85;;;;;;;4.82;100.00;98622.63;6237374;28;20050;-75
2023/03/08 04:02:40;;;;;;;6.32;3.45;;;;;;;4.78;100.00;98634.06;6229869;28;20049;-75
2023/03/08 04:05:41;;;;;;;6.22;2.95;;;;;;;4.69;100.00;98632.03;6263516;28;20495;-75
2023/03/08 04:08:42;;;;;;;5.90;3.40;;;;;;;4.69;100.00;98637.19;6241703;28;20105;-75
2023/03/08 04:11:43;;;;;;;6.70;4.00;;;;;;;4.80;100.00;98650.31;6260946;28;20041;-75
2023/03/08 04:14:44;;;;;;;4.85;3.53;;;;;;;4.95;100.00;98654.56;6238353;28;20052;-75
2023/03/08 04:17:47;;;;;;;5.57;3.50;;;;;;;5.02;100.00;98652.44;6264655;28;20097;-75
2023/03/08 04:20:48;;;;;;;7.65;4.10;;;;;;;5.00;100.00;98643.94;6269367;28;20163;-75
2023/03/08 04:23:49;;;;;;;5.07;3.17;;;;;;;5.05;100.00;98647.09;6254907;28;20470;-75
2023/03/08 04:26:50;;;;;;;6.80;3.40;;;;;;;5.08;100.00;98654.63;6239126;28;20046;-75
2023/03/08 04:29:51;;;;;;;11.50;5.47;;;;;;;5.12;100.00;98653.53;6232306;28;20046;-75
2023/03/08 04:32:52;;;;;;;7.20;3.67;;;;;;;5.10;100.00;98652.78;6232054;28;20041;-75
2023/03/08 04:35:53;;;;;;;3.88;2.88;;;;;;;5.11;100.00;98656.22;6214035;28;20057;-70
2023/03/08 04:38:54;;;;;;;9.77;3.70;;;;;;;5.08;100.00;98654.63;6221938;28;20087;-71
2023/03/08 04:41:54;;;;;;;6.55;3.65;;;;;;;5.07;100.00;98657.34;6220778;28;20416;-71
2023/03/08 04:44:55;;;;;;;6.00;2.65;;;;;;;5.05;100.00;98666.00;6204535;28;20509;-70
2023/03/08 04:47:58;;;;;;;8.07;4.38;;;;;;;5.04;100.00;98666.94;6221208;28;20034;-71
2023/03/08 04:51:01;;;;;;;6.97;3.95;;;;;;;5.08;100.00;98664.16;6208866;28;20073;-71
2023/03/08 04:54:03;;;;;;;6.32;3.70;;;;;;;5.01;100.00;98663.69;6234036;28;20045;-70
2023/03/08 04:57:04;;;;;;;4.93;3.60;;;;;;;4.94;100.00;98668.41;6238228;28;20401;-71
2023/03/08 05:00:05;;;;;;;6.85;3.13;;;;;;;4.81;100.00;98665.72;6228092;28;20135;-71
2023/03/08 05:03:06;;;;;;;6.10;3.50;;;;;;;4.91;100.00;98681.50;6204857;28;20417;-70
2023/03/08 05:06:07;;;;;;;9.60;4.28;;;;;;;4.87;100.00;98685.19;6212346;28;20048;-71
2023/03/08 05:09:08;;;;;;;9.80;4.95;;;;;;;4.88;100.00;98678.28;6203553;28;20561;-72
2023/03/08 05:12:09;;;;;;;8.63;3.60;;;;;;;4.81;100.00;98683.81;6224308;28;20045;-72
2023/03/08 05:15:10;;;;;;;12.85;3.92;;;;;;;4.73;100.00;98678.25;6235553;28;20052;-71
2023/03/08 05:18:11;;;;;;;9.00;3.90;;;;;;;4.78;100.00;98688.34;6246405;28;20481;-75
2023/03/08 05:21:15;;;;;;;8.07;4.72;;;;;;;4.80;100.00;98694.25;6246543;28;20050;-75
2023/03/08 05:24:15;;;;;;;4.82;3.45;;;;;;;4.82;100.00;98690.66;6228819;28;20489;-75
2023/03/08 05:27:16;;;;;;;4.75;3.45;;;;;;;4.75;100.00;98699.66;6246562;28;20042;-75
2023/03/08 05:30:19;;;;;;;7.15;4.13;;;;;;;4.80;100.00;98695.06;6227747;28;20550;-75
2023/03/08 05:33:20;;;;;;;8.70;4.30;;;;;;;4.95;100.00;98695.09;6236965;28;20116;-75
2023/03/08 05:36:21;;;;;;;5.07;4.20;;;;;;;4.79;100.00;98690.81;6228647;28;20048;-75
2023/03/08 05:39:22;;;;;;;7.22;3.90;;;;;;;4.81;100.00;98695.91;6228004;28;20083;-75
2023/03/08 05:42:23;;;;;;;6.40;4.88;;;;;;;4.88;100.00;98699.81;6242872;28;20069;-75
2023/03/08 05:45:23;;;;;;;6.93;4.03;;;;;;;4.90;100.00;98703.13;6243801;28;20121;-75
2023/03/08 05:48:24;;;;;;;5.68;2.95;;;;;;;5.01;100.00;98699.91;6227695;28;20038;-75
2023/03/08 05:51:25;;;;;;;10.32;4.70;;;;;;;5.04;100.00;98697.13;6245657;28;20038;-71
2023/03/08 05:54:26;;;;;;;8.00;4.53;;;;;;;5.07;100.00;98696.94;6226986;28;20494;-72
2023/03/08 05:57:27;;;;;;;7.15;4.28;;;;;;;5.11;100.00;98690.66;6245126;28;20049;-70
2023/03/08 06:00:27;;;;;;;12.35;4.82;;;;;;;5.14;100.00;98677.53;6244424;28;20041;-71
2023/03/08 06:03:28;;;;;;;8.00;3.72;;;;;;;5.23;100.00;98674.41;6226265;28;20047;-71
2023/03/08 06:06:29;;;;;;;9.65;5.15;;;;;;;5.23;100.00;98681.34;6202705;28;20120;-71
2023/03/08 06:09:30;;;;;;;8.65;4.22;;;;;;;5.17;100.00;98686.88;6235963;28;20485;-75
2023/03/08 06:12:33;;;;;;;8.90;4.93;;;;;;;5.17;100.00;98692.88;6238173;28;20053;-71
2023/03/08 06:15:33;;;;;;;10.23;4.70;;;;;;;5.24;100.00;98704.50;6202667;28;20151;-70
2023/03/08 06:18:36;;;;;;;7.78;4.93;;;;;;;5.20;100.00;98709.97;6201193;28;20440;-70
2023/03/08 06:21:37;;;;;;;11.25;5.05;;;;;;;5.25;100.00;98707.94;6217166;28;20048;-71
2023/03/08 06:24:37;;;;;;;14.48;5.22;;;;;;;5.35;100.00;98703.84;6218923;28;20049;-75
2023/03/08 06:27:38;;;;;;;17.33;5.25;;;;;;;5.37;100.00;98711.50;6221726;28;20413;-71
2023/03/08 06:30:39;;;;;;;8.05;5.20;;;;;;;5.42;100.00;98712.91;6244089;28;20041;-75
2023/03/08 06:33:40;;;;;;;12.50;6.15;;;;;;;5.41;100.00;98720.75;6245249;28;20041;-75
2023/03/08 06:36:42;;;;;;;12.35;5.93;;;;;;;5.18;100.00;98720.38;6242839;28;20541;-75
2023/03/08 06:39:42;;;;;;;8.90;4.70;;;;;;;5.05;100.00;98737.56;6225821;28;20057;-71
2023/03/08 06:42:43;;;;;;;13.23;6.18;;;;;;;5.11;100.00;98755.31;6242692;28;20554;-71
2023/03/08 06:45:44;;;;;;;10.38;5.00;;;;;;;5.19;100.00;98758.28;6225579;28;20065;-70
2023/03/08 06:48:48;;;;;;;11.00;4.85;;;;;;;5.34;100.00;98779.78;6226185;28;20064;-75
2023/03/08 06:51:50;;;;;;;10.48;5.47;;;;;;;5.31;100.00;98782.53;6225757;28;20065;-74
2023/03/08 06:54:51;;;;;;;7.50;4.15;;;;;;;5.29;100.00;98788.75;6244124;28;20051;-71
2023/03/08 06:57:51;;;;;;;12.90;5.60;;;;;;;5.47;100.00;98802.34;6243377;28;20038;-71
2023/03/08 07:00:53;;;;;;;9.68;5.28;;;;;;;5.42;100.00;98807.81;6244780;28;20037;-75
2023/03/08 07:03:54;;;;;;;7.63;4.35;;;;;;;5.65;100.00;98814.16;6243754;28;20060;-70
2023/03/08 07:06:56;;;;;;;10.05;5.35;;;;;;;5.76;100.00;98813.50;6244397;28;20112;-74
2023/03/08 07:09:57;;;;;;;8.50;5.25;;;;;;;6.02;100.00;98809.38;6243787;28;20489;-70
2023/03/08 07:13:00;;;;;;;9.27;4.82;;;;;;;6.10;100.00;98814.06;6225906;28;20253;-75
2023/03/08 07:16:09;;;;;;;9.70;5.82;;;;;;;6.27;100.00;98825.97;6244840;28;20041;-75
2023/03/08 07:19:10;;;;;;;16.30;4.90;;;;;;;6.33;100.00;98844.53;6226975;28;20522;-74
2023/03/08 07:22:11;;;;;;;10.23;5.65;;;;;;;6.48;100.00;98853.09;6259824;28;20054;-75
2023/03/08 07:25:14;;;;;;;12.00;5.97;;;;;;;6.48;100.00;98853.09;6244286;28;20076;-74
2023/03/08 07:28:17;;;;;;;18.45;8.05;;;;;;;6.44;100.00;98865.44;6282510;27;20406;-70
2023/03/08 07:31:18;;;;;;;12.90;6.50;;;;;;;6.61;100.00;98866.97;6371720;27;20035;-70
2023/03/08 07:34:24;;;;;;;10.77;6.43;;;;;;;6.64;100.00;98864.16;6353583;28;20041;-70
2023/03/08 07:37:25;;;;;;;7.88;5.57;;;;;;;6.73;100.00;98873.09;6353470;28;20066;-70
2023/03/08 07:40:29;;;;;;;9.93;5.53;;;;;;;6.77;100.00;98873.75;6371510;28;20047;-71
2023/03/08 07:43:30;;;;;;;10.90;5.13;;;;;;;6.72;100.00;98887.00;6371747;28;20419;-71
2023/03/08 07:46:31;;;;;;;9.88;5.75;;;;;;;6.75;100.00;98894.56;6371587;28;20502;-71
2023/03/08 07:49:32;;;;;;;11.38;6.15;;;;;;;6.92;100.00;98893.53;6371658;28;20122;-71
2023/03/08 07:52:32;;;;;;;7.70;4.57;;;;;;;6.94;98.89;98890.81;6372718;28;20121;-71
2023/03/08 07:55:35;;;;;;;8.82;5.30;;;;;;;7.01;97.73;98895.50;6353007;28;20106;-71
2023/03/08 07:58:36;;;;;;;9.02;5.75;;;;;;;7.14;95.20;98897.31;6354648;28;20096;-75
2023/03/08 08:01:36;;;;;;;10.27;4.78;;;;;;;6.99;95.87;98891.34;6354705;28;20494;-75
2023/03/08 08:04:37;;;;;;;14.07;6.13;;;;;;;7.18;94.07;98903.94;6354664;28;20063;-74
2023/03/08 08:07:40;;;;;;;13.13;6.03;;;;;;;7.22;91.93;98895.03;6372270;28;20035;-75
2023/03/08 08:10:42;;;;;;;13.18;4.72;;;;;;;7.39;91.08;98892.19;6354544;28;20062;-74
2023/03/08 08:13:45;;;;;;;5.50;3.92;;;;;;;7.47;88.25;98896.84;6354668;28;20043;-75
2023/03/08 08:16:48;;;;;;;17.23;6.57;;;;;;;7.86;87.63;98898.53;6372571;28;20036;-71
2023/03/08 08:19:49;;;;;;;11.52;5.95;;;;;;;7.83;83.03;98901.31;6371275;28;20483;-70
2023/03/08 08:22:52;;;;;;;12.25;5.25;;;;;;;8.03;80.88;98897.38;6353392;28;20100;-75
2023/03/08 08:25:53;;;;;;;9.40;5.70;;;;;;;7.92;78.55;98909.44;6371944;28;20483;-70
2023/03/08 08:28:55;;;;;;;;;;;;;;;8.13;80.50;98909.72;6353379;28;20475;-71
2023/03/08 08:31:56;;;;;;;8.30;5.10;;;;;;;8.20;78.34;98922.19;6387852;27;19926;-71
2023/03/08 08:34:56;;;;;;;4.95;3.53;;;;;;;8.02;76.30;98924.28;6372029;28;20046;-74
2023/03/08 08:37:57;;;;;;;9.50;5.25;;;;;;;8.15;75.95;98931.22;6372669;28;20035;-75
2023/03/08 08:41:02;;;;;;;8.32;4.07;;;;;;;8.11;73.70;98930.59;6373633;27;20445;-75
2023/03/08 08:44:04;;;;;;;12.70;5.22;;;;;;;8.27;72.76;98932.97;6377098;27;20043;-71
2023/03/08 08:47:04;;;;;;;7.93;4.75;;;;;;;8.13;73.16;98931.31;6357205;27;20066;-71
2023/03/08 08:50:06;;;;;;;8.60;4.47;;;;;;;8.62;70.95;98933.13;6246254;28;20397;-71
2023/03/08 08:53:08;;;;;;;6.38;3.80;;;;;;;9.13;69.63;98937.31;6200580;28;20042;-72
2023/03/08 08:56:24;;;;;;;12.35;5.60;;;;;;;9.21;67.92;98937.59;6204625;28;20049;-75
2023/03/08 08:59:25;;;;;;;8.30;4.43;;;;;;;9.48;67.82;98946.91;6222531;28;20049;-71
2023/03/08 09:02:27;;;;;;;8.60;4.90;;;;;;;9.37;66.50;98947.72;6221049;28;20493;-71
2023/03/08 09:05:28;;;;;;;9.38;3.75;;;;;;;9.06;65.22;98949.13;6236459;28;20125;-75
2023/03/08 09:08:29;;;;;;;5.68;3.90;;;;;;;8.97;66.00;98958.41;6205086;28;20046;-75
2023/03/08 09:11:31;;;;;;;7.82;4.47;;;;;;;8.94;64.29;98956.03;6222355;28;20041;-75
2023/03/08 09:14:33;;;;;;;11.05;4.38;;;;;;;9.02;64.81;98956.31;6205005;28;20054;-75
2023/03/08 09:17:34;;;;;;;;;;;;;;;8.76;64.72;98954.75;6204692;28;20069;-71
2023/03/08 09:20:35;;;;;;;6.15;3.67;;;;;;;8.88;64.86;98953.88;6220685;28;19921;-71
2023/03/08 09:23:38;;;;;;;10.32;3.70;;;;;;;8.78;64.18;98966.69;6220954;28;20042;-71
2023/03/08 09:26:41;;;;;;;7.68;4.05;;;;;;;8.53;65.24;98969.38;6203141;28;20053;-71
2023/03/08 09:29:41;;;;;;;9.25;4.32;;;;;;;8.52;64.31;98980.69;6221889;28;20069;-75
2023/03/08 09:32:43;;;;;;;5.85;3.65;;;;;;;8.54;63.62;98974.44;6220980;28;20050;-71
2023/03/08 09:35:44;;;;;;;10.10;4.45;;;;;;;8.75;62.48;98972.13;6220499;28;20103;-71
2023/03/08 09:38:47;;;;;;;12.43;5.70;;;;;;;9.24;60.74;98954.75;6220606;28;20042;-71
2023/03/08 09:41:57;;;;;;;8.68;4.47;;;;;;;9.62;58.45;98962.34;6220373;28;20045;-70
2023/03/08 09:45:04;;;;;;;6.00;3.33;;;;;;;9.59;55.63;98957.34;6220389;28;20255;-71
2023/03/08 09:48:24;;;;;;;7.93;3.53;;;;;;;9.77;55.45;98954.34;6202686;28;20042;-75
2023/03/08 09:51:37;;;;;;;4.45;3.22;;;;;;;10.02;55.77;98951.53;6221484;28;20401;-75
2023/03/08 09:54:39;;;;;;;3.63;2.72;;;;;;;10.39;52.40;98946.13;6204402;28;20042;-75
2023/03/08 09:57:46;;;;;;;5.90;2.63;;;;;;;10.48;52.38;98955.84;6221675;28;20038;-75
2023/03/08 10:00:50;;;;;;;8.55;2.92;;;;;;;9.90;52.06;98949.84;6204313;28;20042;-75
2023/03/08 10:04:46;;;;;;;9.38;3.72;;;;;;;9.72;52.93;98940.81;6204247;28;20042;-75
2023/03/08 10:08:21;;;;;;;6.28;2.60;;;;;;;9.69;52.60;98927.06;6203500;28;20065;-75
2023/03/08 10:11:52;;;;;;;4.63;2.65;;;;;;;10.00;52.84;98923.94;6204038;28;20041;-75
2023/03/08 10:15:01;;;;;;;5.75;3.17;;;;;;;10.17;52.06;98923.47;6203995;28;20117;-75
2023/03/08 10:18:19;;;;;;;5.85;2.83;;;;;;;10.30;50.67;98927.78;6203906;28;20505;-75
2023/03/08 10:21:24;;;;;;;4.05;2.15;;;;;;;11.49;48.13;98918.16;6203444;28;20094;-75
2023/03/08 10:24:38;;;;;;;10.52;2.95;;;;;;;12.09;47.70;98917.56;6203235;28;20042;-75
2023/03/08 10:27:39;;;;;;;10.50;3.05;;;;;;;11.97;47.04;98923.84;6221234;28;20563;-75
2023/03/08 10:30:47;;;;;;;5.55;2.58;;;;;;;12.00;47.50;98910.50;6203705;28;20041;-75
2023/03/08 10:33:52;;;;;;;10.63;3.60;;;;;;;12.16;47.98;98915.25;6220551;28;20045;-71
2023/03/08 10:37:01;;;;;;;6.55;2.90;;;;;;;11.97;46.06;98913.38;6219781;28;20062;-71
2023/03/08 10:40:08;;;;;;;6.30;2.90;;;;;;;12.08;45.71;98914.09;6220340;28;20068;-75
2023/03/08 10:43:22;;;;;;;4.70;2.50;;;;;;;12.23;44.64;98924.22;6220492;28;20409;-71
2023/03/08 10:46:27;;;;;;;6.43;2.00;;;;;;;11.82;45.69;98918.91;6202792;28;20042;-76
2023/03/08 10:49:28;;;;;;;5.82;2.90;;;;;;;11.99;46.72;98916.69;6203480;28;20034;-76
2023/03/08 10:52:29;;;;;;;7.40;3.22;;;;;;;12.58;46.88;98923.81;6220428;28;20087;-71
2023/03/08 10:55:41;;;;;;;6.38;3.05;;;;;;;12.74;45.17;98932.91;6201836;28;20064;-71
2023/03/08 10:58:42;;;;;;;4.45;2.70;;;;;;;12.37;46.02;98929.09;6202284;28;20046;-76
2023/03/08 11:01:49;;;;;;;7.10;2.67;;;;;;;11.85;44.74;98921.25;6219586;28;20168;-71
2023/03/08 11:04:55;;;;;;;4.47;2.35;;;;;;;11.78;46.02;98922.75;6218342;28;20046;-71
2023/03/08 11:07:58;;;;;;;3.30;2.10;;;;;;;11.46;45.53;98923.63;6201469;28;20501;-71
2023/03/08 11:11:19;;;;;;;4.85;2.42;;;;;;;11.82;46.67;98911.09;6218807;28;20574;-71
2023/03/08 11:14:20;;;;;;;2.45;1.73;;;;;;;11.70;45.93;98915.53;6201306;28;20103;-71
2023/03/08 11:17:30;;;;;;;5.43;2.63;;;;;;;11.62;46.88;98907.50;6201245;28;20435;-73
2023/03/08 11:20:35;;;;;;;4.70;2.60;;;;;;;11.34;47.23;98908.97;6202022;28;20136;-75
2023/03/08 11:23:45;;;;;;;6.07;2.75;;;;;;;11.28;48.25;98907.72;6202948;28;20046;-75
2023/03/08 11:26:46;;;;;;;9.48;3.17;;;;;;;11.12;47.89;98899.47;6220198;28;20050;-75
2023/03/08 11:29:57;;;;;;;4.55;2.53;;;;;;;10.97;48.18;98898.91;6202585;28;20061;-75
2023/03/08 11:33:14;;;;;;;5.53;2.83;;;;;;;11.04;48.28;98887.03;6202531;28;20067;-75
2023/03/08 11:36:26;;;;;;;6.55;3.15;;;;;;;10.91;48.27;98890.75;6202608;28;20500;-71
2023/03/08 11:39:32;;;;;;;5.05;2.55;;;;;;;11.22;48.64;98883.88;6218044;28;20402;-71
2023/03/08 11:42:44;;;;;;;3.63;2.28;;;;;;;11.26;47.55;98891.34;6218171;28;20125;-71
2023/03/08 11:46:04;;;;;;;3.78;2.15;;;;;;;11.44;47.01;98878.53;6200913;28;20046;-71
2023/03/08 11:49:32;;;;;;;4.80;2.42;;;;;;;11.62;47.51;98881.38;6218841;28;20042;-75
2023/03/08 11:52:43;;;;;;;4.28;1.83;;;;;;;11.27;46.57;98864.25;6219974;28;20505;-75
2023/03/08 11:56:09;;;;;;;3.47;2.30;;;;;;;11.49;46.61;98876.38;6202234;28;20117;-75
2023/03/08 11:59:35;;;;;;;2.30;1.80;;;;;;;11.59;46.36;98878.19;6220795;28;20144;-70
2023/03/08 12:02:41;;;;;;;3.03;2.03;;;;;;;11.34;46.35;98884.66;6200621;28;20050;-70
2023/03/08 12:05:49;;;;;;;2.47;1.73;;;;;;;11.43;46.31;98868.22;6217791;28;20046;-71
2023/03/08 12:08:56;;;;;;;4.40;2.33;;;;;;;11.45;46.60;98864.53;6218184;28;20126;-71
2023/03/08 12:12:20;;;;;;;5.50;2.10;;;;;;;11.33;46.24;98862.13;6200973;28;20038;-75
2023/03/08 12:15:36;;;;;;;5.57;2.50;;;;;;;11.52;46.48;98854.38;6219483;28;20416;-75
2023/03/08 12:19:01;;;;;;;4.85;2.17;;;;;;;11.52;45.33;98869.22;6223433;28;20505;-70
2023/03/08 12:22:33;;;;;;;13.38;7.20;;;;;;;11.76;44.55;98856.72;6206114;28;20061;-75
2023/03/08 12:25:40;;;;;;;2.60;1.90;;;;;;;11.86;44.14;98856.75;6223549;28;20046;-75
2023/03/08 12:28:47;;;;;;;6.82;2.70;;;;;;;12.03;43.44;98853.56;6223443;28;20066;-76
2023/03/08 12:31:49;;;;;;;7.20;3.25;;;;;;;12.15;43.76;98861.28;6223371;28;20042;-75
2023/03/08 12:35:03;;;;;;;6.55;3.08;;;;;;;12.37;44.23;98866.31;6205890;28;20052;-75
2023/03/08 12:38:24;;;;;;;13.27;4.60;;;;;;;12.46;44.22;98867.31;6222978;28;20049;-71
2023/03/08 12:41:30;;;;;;;7.70;4.23;;;;;;;12.30;42.24;98866.03;6221074;28;20050;-74
2023/03/08 12:44:31;;;;;;;7.28;3.22;;;;;;;12.20;43.35;98865.16;6205085;28;20042;-76
2023/03/08 12:47:32;;;;;;;6.75;2.97;;;;;;;12.03;43.54;98861.41;6222001;28;20065;-71
2023/03/08 12:50:40;;;;;;;6.28;3.13;;;;;;;12.15;44.09;98861.28;6221495;28;20042;-71
2023/03/08 12:53:50;;;;;;;3.05;1.92;;;;;;;11.91;42.50;98849.38;6203840;28;20091;-72
2023/03/08 12:56:56;;;;;;;2.63;1.73;;;;;;;12.08;43.62;98853.16;6203697;28;20402;-71
2023/03/08 13:00:05;;;;;;;12.38;5.53;;;;;;;12.13;44.53;98842.28;6203686;28;20053;-71
2023/03/08 13:03:12;;;;;;;13.65;6.22;;;;;;;12.08;43.72;98846.13;6221186;28;20068;-71
2023/03/08 13:06:22;;;;;;;7.53;2.67;;;;;;;12.01;43.23;98842.41;6204676;28;20042;-75
2023/03/08 13:09:29;;;;;;;4.47;3.00;;;;;;;11.85;43.77;98844.66;6221762;28;20056;-71
2023/03/08 13:12:38;;;;;;;5.95;3.33;;;;;;;11.75;44.38;98844.59;6203549;28;20049;-71
2023/03/08 13:15:39;;;;;;;4.88;2.30;;;;;;;11.81;44.51;98845.88;6221009;28;20126;-71
2023/03/08 13:18:50;;;;;;;7.55;3.40;;;;;;;11.85;44.07;98839.41;6203334;28;20482;-71
2023/03/08 13:22:30;;;;;;;6.75;3.70;;;;;;;11.88;43.24;98832.19;6221124;28;20073;-70
2023/03/08 13:25:33;;;;;;;8.52;3.15;;;;;;;11.87;43.34;98834.88;6222208;28;20050;-75
2023/03/08 13:28:37;;;;;;;7.78;2.38;;;;;;;11.79;44.56;98825.09;6220558;28;20494;-71
2023/03/08 13:31:41;;;;;;;9.05;3.20;;;;;;;11.86;43.46;98814.91;6220748;28;20038;-75
2023/03/08 13:34:44;;;;;;;8.50;3.72;;;;;;;11.92;43.87;98813.59;6204802;28;20034;-75
2023/03/08 13:37:56;;;;;;;5.55;2.85;;;;;;;11.77;43.24;98819.16;6222079;28;20490;-75
2023/03/08 13:40:58;;;;;;;5.07;3.00;;;;;;;11.73;43.35;98809.09;6204494;28;20054;-75
2023/03/08 13:44:00;;;;;;;9.27;3.30;;;;;;;11.76;43.57;98814.91;6222102;28;20562;-75
2023/03/08 13:47:13;;;;;;;6.40;3.92;;;;;;;11.79;43.72;98819.03;6237269;28;20478;-75
2023/03/08 13:50:38;;;;;;;7.20;3.90;;;;;;;11.84;44.23;98812.47;6204523;28;20076;-76
2023/03/08 13:53:45;;;;;;;5.05;3.22;;;;;;;11.82;43.39;98814.38;6221863;28;20046;-75
2023/03/08 13:56:52;;;;;;;9.32;3.55;;;;;;;11.86;43.84;98813.16;6221831;28;20042;-75
2023/03/08 14:00:18;;;;;;;4.70;2.83;;;;;;;11.72;43.04;98808.28;6204432;28;20132;-75
2023/03/08 14:03:19;;;;;;;20.80;10.73;;;;;;;11.73;42.95;98799.47;6221861;28;20075;-75
2023/03/08 14:06:20;;;;;;;10.93;5.20;;;;;;;11.70;43.06;98795.34;6221654;28;20068;-75
2023/03/08 14:09:22;;;;;;;22.67;10.52;;;;;;;11.82;43.04;98788.25;6204231;28;20073;-75
2023/03/08 14:12:29;;;;;;;38.05;13.80;;;;;;;11.75;43.40;98794.94;6219873;28;20386;-71
2023/03/08 14:15:33;;;;;;;33.17;12.60;;;;;;;11.85;43.79;98789.75;6223827;28;20417;-71
2023/03/08 14:18:37;;;;;;;41.03;14.93;;;;;;;11.88;43.97;98794.72;6212614;28;20049;-76
2023/03/08 14:21:50;;;;;;;25.08;12.60;;;;;;;11.88;43.38;98790.38;6221470;28;20057;-71
2023/03/08 14:25:02;;;;;;;12.68;5.00;;;;;;;11.60;42.61;98791.88;6219409;28;20090;-71
2023/03/08 14:28:03;;;;;;;4.93;2.90;;;;;;;11.72;42.86;98795.22;6225889;28;20124;-75
2023/03/08 14:31:26;;;;;;;10.23;3.58;;;;;;;11.68;42.37;98786.81;6243438;28;20037;-71